sensor_id;sensor_type;location;lat;lon;timestamp;temperature;humidity
51021;DHT22;38907;45.562;8.856;2023-06-24T00:03:52;25.90;57.50
51021;DHT22;38907;45.562;8.856;2023-06-24T00:08:54;26.00;57.70
51021;DHT22;38907;45.562;8.856;2023-06-24T00:14:00;26.00;57.50
51021;DHT22;38907;45.562;8.856;2023-06-24T00:19:04;25.90;57.60
51021;DHT22;38907;45.562;8.856;2023-06-24T00:24:06;25.90;57.50
51021;DHT22;38907;45.562;8.856;2023-06-24T00:29:07;25.90;57.40
51021;DHT22;38907;45.562;8.856;2023-06-24T00:34:11;25.80;57.50
51021;DHT22;38907;45.562;8.856;2023-06-24T00:39:13;25.80;57.50
51021;DHT22;38907;45.562;8.856;2023-06-24T00:44:15;25.70;57.70
51021;DHT22;38907;45.562;8.856;2023-06-24T00:49:18;25.60;57.40
51021;DHT22;38907;45.562;8.856;2023-06-24T00:54:20;25.70;57.50
51021;DHT22;38907;45.562;8.856;2023-06-24T00:59:23;25.60;57.70
51021;DHT22;38907;45.562;8.856;2023-06-24T01:04:26;25.50;57.90
51021;DHT22;38907;45.562;8.856;2023-06-24T01:09:28;25.50;58.00
51021;DHT22;38907;45.562;8.856;2023-06-24T01:14:30;25.40;57.90
51021;DHT22;38907;45.562;8.856;2023-06-24T01:20:02;25.30;58.20
51021;DHT22;38907;45.562;8.856;2023-06-24T01:25:23;25.30;58.40
51021;DHT22;38907;45.562;8.856;2023-06-24T01:30:54;25.20;58.70
51021;DHT22;38907;45.562;8.856;2023-06-24T01:36:01;25.10;58.50
51021;DHT22;38907;45.562;8.856;2023-06-24T01:41:04;25.10;58.70
51021;DHT22;38907;45.562;8.856;2023-06-24T01:46:09;25.10;58.60
51021;DHT22;38907;45.562;8.856;2023-06-24T01:51:17;25.10;58.60
51021;DHT22;38907;45.562;8.856;2023-06-24T01:56:21;25.00;58.50
51021;DHT22;38907;45.562;8.856;2023-06-24T02:01:25;25.10;58.30
51021;DHT22;38907;45.562;8.856;2023-06-24T02:06:30;25.10;58.40
51021;DHT22;38907;45.562;8.856;2023-06-24T02:11:33;25.00;58.50
51021;DHT22;38907;45.562;8.856;2023-06-24T02:16:37;25.00;58.30
51021;DHT22;38907;45.562;8.856;2023-06-24T02:21:44;25.00;58.70
51021;DHT22;38907;45.562;8.856;2023-06-24T02:26:47;24.80;58.80
51021;DHT22;38907;45.562;8.856;2023-06-24T02:31:49;24.90;58.70
51021;DHT22;38907;45.562;8.856;2023-06-24T02:36:53;24.90;58.90
51021;DHT22;38907;45.562;8.856;2023-06-24T02:41:54;24.80;59.20
51021;DHT22;38907;45.562;8.856;2023-06-24T02:46:57;24.70;59.30
51021;DHT22;38907;45.562;8.856;2023-06-24T02:52:02;24.70;59.20
51021;DHT22;38907;45.562;8.856;2023-06-24T02:57:04;24.70;59.30
51021;DHT22;38907;45.562;8.856;2023-06-24T03:02:07;24.60;59.70
51021;DHT22;38907;45.562;8.856;2023-06-24T03:07:11;24.60;59.70
51021;DHT22;38907;45.562;8.856;2023-06-24T03:12:13;24.50;60.00
51021;DHT22;38907;45.562;8.856;2023-06-24T03:17:15;24.40;60.10
51021;DHT22;38907;45.562;8.856;2023-06-24T03:22:18;24.40;60.40
51021;DHT22;38907;45.562;8.856;2023-06-24T03:27:20;24.30;60.10
51021;DHT22;38907;45.562;8.856;2023-06-24T03:32:22;24.30;60.40
51021;DHT22;38907;45.562;8.856;2023-06-24T03:37:25;24.30;60.20
51021;DHT22;38907;45.562;8.856;2023-06-24T03:42:27;24.30;60.00
51021;DHT22;38907;45.562;8.856;2023-06-24T03:47:30;24.30;60.10
51021;DHT22;38907;45.562;8.856;2023-06-24T03:52:33;24.30;60.20
51021;DHT22;38907;45.562;8.856;2023-06-24T03:57:35;24.30;60.00
51021;DHT22;38907;45.562;8.856;2023-06-24T04:02:37;24.30;60.50
51021;DHT22;38907;45.562;8.856;2023-06-24T04:07:40;24.30;61.20
51021;DHT22;38907;45.562;8.856;2023-06-24T04:12:47;24.30;60.90
51021;DHT22;38907;45.562;8.856;2023-06-24T04:17:49;24.20;61.00
51021;DHT22;38907;45.562;8.856;2023-06-24T04:22:52;24.30;61.20
51021;DHT22;38907;45.562;8.856;2023-06-24T04:27:54;24.30;61.00
51021;DHT22;38907;45.562;8.856;2023-06-24T04:32:56;24.30;61.20
51021;DHT22;38907;45.562;8.856;2023-06-24T04:37:59;24.30;61.90
51021;DHT22;38907;45.562;8.856;2023-06-24T04:43:01;24.40;61.60
51021;DHT22;38907;45.562;8.856;2023-06-24T04:48:03;24.40;61.20
51021;DHT22;38907;45.562;8.856;2023-06-24T04:53:06;24.50;61.10
51021;DHT22;38907;45.562;8.856;2023-06-24T04:58:08;24.60;61.80
51021;DHT22;38907;45.562;8.856;2023-06-24T05:03:10;24.60;61.50
51021;DHT22;38907;45.562;8.856;2023-06-24T05:08:13;24.60;61.60
51021;DHT22;38907;45.562;8.856;2023-06-24T05:13:15;24.70;61.80
51021;DHT22;38907;45.562;8.856;2023-06-24T05:18:17;24.70;61.60
51021;DHT22;38907;45.562;8.856;2023-06-24T05:23:20;24.80;61.60
51021;DHT22;38907;45.562;8.856;2023-06-24T05:28:22;24.90;61.60
51021;DHT22;38907;45.562;8.856;2023-06-24T05:33:23;25.00;61.60
51021;DHT22;38907;45.562;8.856;2023-06-24T05:38:27;25.00;61.00
51021;DHT22;38907;45.562;8.856;2023-06-24T05:43:29;25.20;61.50
51021;DHT22;38907;45.562;8.856;2023-06-24T05:48:31;25.30;61.00
51021;DHT22;38907;45.562;8.856;2023-06-24T05:53:34;25.50;61.70
51021;DHT22;38907;45.562;8.856;2023-06-24T05:58:36;25.70;60.80
51021;DHT22;38907;45.562;8.856;2023-06-24T06:03:38;25.80;61.10
51021;DHT22;38907;45.562;8.856;2023-06-24T06:08:41;25.80;61.20
51021;DHT22;38907;45.562;8.856;2023-06-24T06:13:43;25.90;60.70
51021;DHT22;38907;45.562;8.856;2023-06-24T06:18:45;26.00;60.10
51021;DHT22;38907;45.562;8.856;2023-06-24T06:23:48;26.00;60.60
51021;DHT22;38907;45.562;8.856;2023-06-24T06:28:50;26.20;60.30
51021;DHT22;38907;45.562;8.856;2023-06-24T06:33:54;26.20;60.50
51021;DHT22;38907;45.562;8.856;2023-06-24T06:38:57;26.30;60.30
51021;DHT22;38907;45.562;8.856;2023-06-24T06:43:59;26.40;59.80
51021;DHT22;38907;45.562;8.856;2023-06-24T06:49:01;26.60;60.80
51021;DHT22;38907;45.562;8.856;2023-06-24T06:54:04;26.70;60.40
51021;DHT22;38907;45.562;8.856;2023-06-24T06:59:06;26.70;59.70
51021;DHT22;38907;45.562;8.856;2023-06-24T07:04:08;26.80;60.50
51021;DHT22;38907;45.562;8.856;2023-06-24T07:09:11;27.00;60.80
51021;DHT22;38907;45.562;8.856;2023-06-24T07:14:13;27.00;60.00
51021;DHT22;38907;45.562;8.856;2023-06-24T07:19:15;27.10;60.30
51021;DHT22;38907;45.562;8.856;2023-06-24T07:24:18;27.20;60.10
51021;DHT22;38907;45.562;8.856;2023-06-24T07:29:20;27.40;60.60
51021;DHT22;38907;45.562;8.856;2023-06-24T07:34:22;27.50;60.00
51021;DHT22;38907;45.562;8.856;2023-06-24T07:39:25;27.50;60.60
51021;DHT22;38907;45.562;8.856;2023-06-24T07:44:27;27.60;61.60
51021;DHT22;38907;45.562;8.856;2023-06-24T07:49:28;27.70;60.80
51021;DHT22;38907;45.562;8.856;2023-06-24T07:54:31;27.80;60.20
51021;DHT22;38907;45.562;8.856;2023-06-24T07:59:33;27.80;60.50
51021;DHT22;38907;45.562;8.856;2023-06-24T08:04:35;28.00;60.10
51021;DHT22;38907;45.562;8.856;2023-06-24T08:09:38;28.00;59.40
51021;DHT22;38907;45.562;8.856;2023-06-24T08:14:40;28.10;61.40
51021;DHT22;38907;45.562;8.856;2023-06-24T08:19:42;28.20;60.80
51021;DHT22;38907;45.562;8.856;2023-06-24T08:24:45;28.30;59.90
51021;DHT22;38907;45.562;8.856;2023-06-24T08:29:47;28.40;59.20
51021;DHT22;38907;45.562;8.856;2023-06-24T08:34:49;28.50;59.90
51021;DHT22;38907;45.562;8.856;2023-06-24T08:39:52;28.60;60.00
51021;DHT22;38907;45.562;8.856;2023-06-24T08:44:54;28.70;60.20
51021;DHT22;38907;45.562;8.856;2023-06-24T08:50:01;28.70;61.10
51021;DHT22;38907;45.562;8.856;2023-06-24T08:55:06;28.80;60.80
51021;DHT22;38907;45.562;8.856;2023-06-24T09:00:12;28.80;58.90
51021;DHT22;38907;45.562;8.856;2023-06-24T09:05:14;28.80;58.80
51021;DHT22;38907;45.562;8.856;2023-06-24T09:10:30;28.70;58.30
51021;DHT22;38907;45.562;8.856;2023-06-24T09:15:33;28.90;60.80
51021;DHT22;38907;45.562;8.856;2023-06-24T09:20:35;29.00;58.00
51021;DHT22;38907;45.562;8.856;2023-06-24T09:25:55;29.00;60.60
51021;DHT22;38907;45.562;8.856;2023-06-24T09:31:05;29.20;60.70
51021;DHT22;38907;45.562;8.856;2023-06-24T09:36:11;29.30;59.50
51021;DHT22;38907;45.562;8.856;2023-06-24T09:41:15;29.30;60.00
51021;DHT22;38907;45.562;8.856;2023-06-24T09:46:18;29.20;57.80
51021;DHT22;38907;45.562;8.856;2023-06-24T09:51:20;29.30;60.90
51021;DHT22;38907;45.562;8.856;2023-06-24T09:56:25;29.40;59.60
51021;DHT22;38907;45.562;8.856;2023-06-24T10:01:28;29.60;62.90
51021;DHT22;38907;45.562;8.856;2023-06-24T10:06:30;29.60;61.70
51021;DHT22;38907;45.562;8.856;2023-06-24T10:11:33;29.60;63.50
51021;DHT22;38907;45.562;8.856;2023-06-24T10:16:35;29.70;62.80
51021;DHT22;38907;45.562;8.856;2023-06-24T10:21:45;29.80;63.60
51021;DHT22;38907;45.562;8.856;2023-06-24T10:26:49;29.70;60.80
51021;DHT22;38907;45.562;8.856;2023-06-24T10:31:53;29.50;64.00
51021;DHT22;38907;45.562;8.856;2023-06-24T10:36:58;29.80;64.00
51021;DHT22;38907;45.562;8.856;2023-06-24T10:42:31;30.00;63.90
51021;DHT22;38907;45.562;8.856;2023-06-24T10:47:45;30.00;64.40
51021;DHT22;38907;45.562;8.856;2023-06-24T10:52:49;29.80;64.50
51021;DHT22;38907;45.562;8.856;2023-06-24T10:58:07;29.90;64.70
51021;DHT22;38907;45.562;8.856;2023-06-24T11:03:10;30.00;64.20
51021;DHT22;38907;45.562;8.856;2023-06-24T11:08:12;29.90;61.30
51021;DHT22;38907;45.562;8.856;2023-06-24T11:13:16;30.00;64.10
51021;DHT22;38907;45.562;8.856;2023-06-24T11:18:21;29.90;63.20
51021;DHT22;38907;45.562;8.856;2023-06-24T11:23:23;30.00;63.90
51021;DHT22;38907;45.562;8.856;2023-06-24T11:28:26;30.10;63.50
51021;DHT22;38907;45.562;8.856;2023-06-24T11:33:28;30.00;63.00
51021;DHT22;38907;45.562;8.856;2023-06-24T11:38:30;29.90;60.50
51021;DHT22;38907;45.562;8.856;2023-06-24T11:43:34;30.00;60.80
51021;DHT22;38907;45.562;8.856;2023-06-24T11:48:39;30.20;60.00
51021;DHT22;38907;45.562;8.856;2023-06-24T11:53:42;30.20;62.70
51021;DHT22;38907;45.562;8.856;2023-06-24T11:58:48;30.60;62.90
51021;DHT22;38907;45.562;8.856;2023-06-24T12:03:51;30.70;61.60
51021;DHT22;38907;45.562;8.856;2023-06-24T12:08:54;30.40;60.00
51021;DHT22;38907;45.562;8.856;2023-06-24T12:13:57;30.60;62.30
51021;DHT22;38907;45.562;8.856;2023-06-24T12:18:59;30.70;60.50
51021;DHT22;38907;45.562;8.856;2023-06-24T12:24:01;30.60;62.00
51021;DHT22;38907;45.562;8.856;2023-06-24T12:29:04;30.60;62.20
51021;DHT22;38907;45.562;8.856;2023-06-24T12:34:06;30.80;61.20
51021;DHT22;38907;45.562;8.856;2023-06-24T12:39:08;31.00;60.70
51021;DHT22;38907;45.562;8.856;2023-06-24T12:44:12;30.90;61.10
51021;DHT22;38907;45.562;8.856;2023-06-24T12:49:14;30.80;59.50
51021;DHT22;38907;45.562;8.856;2023-06-24T12:54:16;30.90;59.40
51021;DHT22;38907;45.562;8.856;2023-06-24T12:59:20;30.80;61.70
51021;DHT22;38907;45.562;8.856;2023-06-24T13:04:22;31.10;62.90
51021;DHT22;38907;45.562;8.856;2023-06-24T13:09:25;31.20;63.10
51021;DHT22;38907;45.562;8.856;2023-06-24T13:14:29;31.30;62.30
51021;DHT22;38907;45.562;8.856;2023-06-24T13:19:32;31.30;61.00
51021;DHT22;38907;45.562;8.856;2023-06-24T13:24:34;31.40;63.60
51021;DHT22;38907;45.562;8.856;2023-06-24T13:29:37;31.20;63.10
51021;DHT22;38907;45.562;8.856;2023-06-24T13:34:39;31.40;63.00
51021;DHT22;38907;45.562;8.856;2023-06-24T13:39:41;31.20;62.90
51021;DHT22;38907;45.562;8.856;2023-06-24T13:44:45;31.50;62.70
51021;DHT22;38907;45.562;8.856;2023-06-24T13:49:47;31.80;63.60
51021;DHT22;38907;45.562;8.856;2023-06-24T13:54:49;31.70;62.80
51021;DHT22;38907;45.562;8.856;2023-06-24T13:59:52;31.40;62.80
51021;DHT22;38907;45.562;8.856;2023-06-24T14:04:55;31.50;62.70
51021;DHT22;38907;45.562;8.856;2023-06-24T14:09:58;31.60;61.50
51021;DHT22;38907;45.562;8.856;2023-06-24T14:15:02;31.80;61.50
51021;DHT22;38907;45.562;8.856;2023-06-24T14:20:05;31.80;62.30
51021;DHT22;38907;45.562;8.856;2023-06-24T14:25:07;31.80;61.50
51021;DHT22;38907;45.562;8.856;2023-06-24T14:30:11;31.70;60.90
51021;DHT22;38907;45.562;8.856;2023-06-24T14:35:14;31.90;61.60
51021;DHT22;38907;45.562;8.856;2023-06-24T14:40:16;31.80;61.70
51021;DHT22;38907;45.562;8.856;2023-06-24T14:45:19;31.80;60.90
51021;DHT22;38907;45.562;8.856;2023-06-24T14:50:21;32.00;62.40
51021;DHT22;38907;45.562;8.856;2023-06-24T14:55:23;32.10;61.20
51021;DHT22;38907;45.562;8.856;2023-06-24T15:00:26;32.20;62.00
51021;DHT22;38907;45.562;8.856;2023-06-24T15:05:28;32.30;62.30
51021;DHT22;38907;45.562;8.856;2023-06-24T15:10:30;32.20;62.40
51021;DHT22;38907;45.562;8.856;2023-06-24T15:15:33;32.40;61.30
51021;DHT22;38907;45.562;8.856;2023-06-24T15:20:35;32.50;62.10
51021;DHT22;38907;45.562;8.856;2023-06-24T15:25:37;32.50;61.10
51021;DHT22;38907;45.562;8.856;2023-06-24T15:30:40;32.60;62.20
51021;DHT22;38907;45.562;8.856;2023-06-24T15:35:42;32.50;61.40
51021;DHT22;38907;45.562;8.856;2023-06-24T15:40:44;32.80;62.20
51021;DHT22;38907;45.562;8.856;2023-06-24T15:45:47;32.60;60.00
51021;DHT22;38907;45.562;8.856;2023-06-24T15:50:49;32.70;60.70
51021;DHT22;38907;45.562;8.856;2023-06-24T15:55:51;32.80;61.30
51021;DHT22;38907;45.562;8.856;2023-06-24T16:00:54;32.90;61.00
51021;DHT22;38907;45.562;8.856;2023-06-24T16:05:56;32.60;62.30
51021;DHT22;38907;45.562;8.856;2023-06-24T16:10:58;32.70;62.30
51021;DHT22;38907;45.562;8.856;2023-06-24T16:16:03;32.80;62.30
51021;DHT22;38907;45.562;8.856;2023-06-24T16:21:05;32.60;63.10
51021;DHT22;38907;45.562;8.856;2023-06-24T16:26:07;32.80;61.90
51021;DHT22;38907;45.562;8.856;2023-06-24T16:31:11;32.70;62.50
51021;DHT22;38907;45.562;8.856;2023-06-24T16:36:13;32.60;62.60
51021;DHT22;38907;45.562;8.856;2023-06-24T16:41:15;32.70;62.60
51021;DHT22;38907;45.562;8.856;2023-06-24T16:46:18;32.50;62.80
51021;DHT22;38907;45.562;8.856;2023-06-24T16:51:22;32.30;62.70
51021;DHT22;38907;45.562;8.856;2023-06-24T16:56:25;32.10;62.20
51021;DHT22;38907;45.562;8.856;2023-06-24T17:01:28;31.90;63.80
51021;DHT22;38907;45.562;8.856;2023-06-24T17:06:32;31.60;63.70
51021;DHT22;38907;45.562;8.856;2023-06-24T17:11:34;31.40;64.20
51021;DHT22;38907;45.562;8.856;2023-06-24T17:16:37;31.10;64.20
51021;DHT22;38907;45.562;8.856;2023-06-24T17:21:39;30.90;64.30
51021;DHT22;38907;45.562;8.856;2023-06-24T17:26:41;30.80;63.40
51021;DHT22;38907;45.562;8.856;2023-06-24T17:31:46;30.70;64.50
51021;DHT22;38907;45.562;8.856;2023-06-24T17:36:49;30.60;64.30
51021;DHT22;38907;45.562;8.856;2023-06-24T17:41:51;30.50;65.30
51021;DHT22;38907;45.562;8.856;2023-06-24T17:46:54;30.40;65.00
51021;DHT22;38907;45.562;8.856;2023-06-24T17:51:56;30.30;65.60
51021;DHT22;38907;45.562;8.856;2023-06-24T17:56:58;30.20;66.70
51021;DHT22;38907;45.562;8.856;2023-06-24T18:02:01;30.10;67.00
51021;DHT22;38907;45.562;8.856;2023-06-24T18:07:04;30.00;67.70
51021;DHT22;38907;45.562;8.856;2023-06-24T18:12:06;29.90;68.60
51021;DHT22;38907;45.562;8.856;2023-06-24T18:17:09;29.80;68.90
51021;DHT22;38907;45.562;8.856;2023-06-24T18:22:11;29.60;69.50
51021;DHT22;38907;45.562;8.856;2023-06-24T18:27:13;29.50;69.00
51021;DHT22;38907;45.562;8.856;2023-06-24T18:32:17;29.40;69.90
51021;DHT22;38907;45.562;8.856;2023-06-24T18:37:18;29.30;70.20
51021;DHT22;38907;45.562;8.856;2023-06-24T18:42:22;29.10;70.60
51021;DHT22;38907;45.562;8.856;2023-06-24T18:47:25;29.20;70.90
51021;DHT22;38907;45.562;8.856;2023-06-24T18:52:27;29.00;71.70
51021;DHT22;38907;45.562;8.856;2023-06-24T18:57:29;28.90;71.80
51021;DHT22;38907;45.562;8.856;2023-06-24T19:02:32;28.90;72.00
51021;DHT22;38907;45.562;8.856;2023-06-24T19:07:34;28.70;72.20
51021;DHT22;38907;45.562;8.856;2023-06-24T19:12:36;28.60;72.70
51021;DHT22;38907;45.562;8.856;2023-06-24T19:17:39;28.50;73.10
51021;DHT22;38907;45.562;8.856;2023-06-24T19:22:41;28.30;73.50
51021;DHT22;38907;45.562;8.856;2023-06-24T19:27:43;28.10;75.70
51021;DHT22;38907;45.562;8.856;2023-06-24T19:32:46;27.80;75.60
51021;DHT22;38907;45.562;8.856;2023-06-24T19:37:48;27.70;75.50
51021;DHT22;38907;45.562;8.856;2023-06-24T19:42:49;27.60;76.40
51021;DHT22;38907;45.562;8.856;2023-06-24T19:47:53;27.40;77.90
51021;DHT22;38907;45.562;8.856;2023-06-24T19:52:54;27.30;78.00
51021;DHT22;38907;45.562;8.856;2023-06-24T19:57:56;27.60;78.00
51021;DHT22;38907;45.562;8.856;2023-06-24T20:02:59;27.50;78.80
51021;DHT22;38907;45.562;8.856;2023-06-24T20:08:03;27.20;80.00
51021;DHT22;38907;45.562;8.856;2023-06-24T20:13:05;27.30;80.10
51021;DHT22;38907;45.562;8.856;2023-06-24T20:18:08;27.30;80.30
51021;DHT22;38907;45.562;8.856;2023-06-24T20:23:10;26.80;81.30
51021;DHT22;38907;45.562;8.856;2023-06-24T20:28:12;26.60;82.60
51021;DHT22;38907;45.562;8.856;2023-06-24T20:33:15;26.60;83.30
51021;DHT22;38907;45.562;8.856;2023-06-24T20:38:17;26.70;83.10
51021;DHT22;38907;45.562;8.856;2023-06-24T20:43:19;26.70;83.70
51021;DHT22;38907;45.562;8.856;2023-06-24T20:48:24;26.50;84.30
51021;DHT22;38907;45.562;8.856;2023-06-24T20:53:26;26.30;84.60
51021;DHT22;38907;45.562;8.856;2023-06-24T20:58:28;26.30;85.20
51021;DHT22;38907;45.562;8.856;2023-06-24T21:03:31;26.20;84.90
51021;DHT22;38907;45.562;8.856;2023-06-24T21:08:33;26.30;85.50
51021;DHT22;38907;45.562;8.856;2023-06-24T21:13:34;26.50;84.90
51021;DHT22;38907;45.562;8.856;2023-06-24T21:18:38;26.30;85.10
51021;DHT22;38907;45.562;8.856;2023-06-24T21:23:40;26.30;84.50
51021;DHT22;38907;45.562;8.856;2023-06-24T21:28:41;26.30;83.40
51021;DHT22;38907;45.562;8.856;2023-06-24T21:33:45;26.20;84.10
51021;DHT22;38907;45.562;8.856;2023-06-24T21:38:47;26.20;83.80
51021;DHT22;38907;45.562;8.856;2023-06-24T21:43:49;26.20;83.50
51021;DHT22;38907;45.562;8.856;2023-06-24T21:48:52;26.10;82.90
51021;DHT22;38907;45.562;8.856;2023-06-24T21:53:54;26.20;82.30
51021;DHT22;38907;45.562;8.856;2023-06-24T21:58:56;26.40;81.50
51021;DHT22;38907;45.562;8.856;2023-06-24T22:03:59;26.40;80.90
51021;DHT22;38907;45.562;8.856;2023-06-24T22:09:01;26.40;81.20
51021;DHT22;38907;45.562;8.856;2023-06-24T22:14:03;26.20;81.40
51021;DHT22;38907;45.562;8.856;2023-06-24T22:19:06;26.20;81.60
51021;DHT22;38907;45.562;8.856;2023-06-24T22:24:08;26.20;81.80
51021;DHT22;38907;45.562;8.856;2023-06-24T22:29:10;26.00;82.10
51021;DHT22;38907;45.562;8.856;2023-06-24T22:34:14;26.00;82.40
51021;DHT22;38907;45.562;8.856;2023-06-24T22:39:16;25.90;82.80
51021;DHT22;38907;45.562;8.856;2023-06-24T22:44:19;25.80;83.50
51021;DHT22;38907;45.562;8.856;2023-06-24T22:49:23;25.70;83.90
51021;DHT22;38907;45.562;8.856;2023-06-24T22:54:25;25.60;84.40
51021;DHT22;38907;45.562;8.856;2023-06-24T22:59:27;25.60;84.20
51021;DHT22;38907;45.562;8.856;2023-06-24T23:04:30;25.60;84.00
51021;DHT22;38907;45.562;8.856;2023-06-24T23:09:33;25.80;83.70
51021;DHT22;38907;45.562;8.856;2023-06-24T23:14:35;25.70;83.40
51021;DHT22;38907;45.562;8.856;2023-06-24T23:19:38;25.90;83.00
51021;DHT22;38907;45.562;8.856;2023-06-24T23:24:40;25.90;83.00
51021;DHT22;38907;45.562;8.856;2023-06-24T23:29:48;25.80;83.30
51021;DHT22;38907;45.562;8.856;2023-06-24T23:34:52;25.80;83.40
51021;DHT22;38907;45.562;8.856;2023-06-24T23:39:55;25.80;83.40
51021;DHT22;38907;45.562;8.856;2023-06-24T23:44:56;25.80;84.20
51021;DHT22;38907;45.562;8.856;2023-06-24T23:50:00;25.80;83.60
51021;DHT22;38907;45.562;8.856;2023-06-24T23:55:01;25.80;84.00
